Pagrindinis puslapis
METAR-TAF:

METAR-TAF

Oro uostai :

Zamboanga, Filipinai

platuma: 06-54N, ilguma: 122-04E, Aukštis: 5 m

Dabartinis oras

Ataskaita buvo paskelbta 35 minutes, ne 00:00 UTC
Vėjas 4 kt iš Rytų/Šiaurės Rytų
Temperatūra 29°C
Drėgmė 79%
Slėgis 1010 hPa
Matomumas 10 km arba daugiau
Mažai debesys ne aukštis 1700 ft

METAR: RPMZ 270000Z 06004KT 9999 FEW017 29/25 Q1010 RMK A2983

Laikas: 08:35 (00:35 UTC)

Prognozė

Ataskaita buvo paskelbta 1 valandą ir 35 minutes, ne 23:00 UTC
Prognozė galioja nuo 27 metu 00 UTC su 27 metu 24 UTC
Vėjas 5 kt iš Vakarų/Pietvakarių
Matomumas 10 km arba daugiau
Mažai debesys ne aukštis 1700 ft
Išsisklaidę debesys ne aukštis 30000 ft
Laikinai
nuo 27 metu 00 UTC su 27 metu 06 UTC
Vėjas 10 kt iš Rytų/Pietryčių
Mažai debesys ne aukštis 1600 ft, Liūtiniai kamuoliniai debesys.
Mažai debesys ne aukštis 1700 ft
Išsisklaidę debesys ne aukštis 9000 ft

TAF: RPMZ 262300Z 2700/2724 25005KT 9999 FEW017 SCT300 TEMPO 2700/2706 12010KT FEW016CB FEW017 SCT090

Orai ataskaitas ir orų prognozės (METAR, TAF).

turimą stotys yra geltonos ir raudonos taškus žemėlapyje.

Perkelti pele per norėdami pamatyti stoties vardą.

Tada spustelėkite, norėdami matyti oro stebėjimo ir prognozės.

Norėdami pakeisti žemėlapį: spustelėkite ant žalios mygtukų su juodo kryžiaus žemyn,; žalią mygtuką su brūkšneliu, jei norite nutolinti; arba žalių rodyklių gretimoms žemėlapius.


METAR-TAF: